sensor_id;sensor_type;location;lat;lon;timestamp;pressure;altitude;pressure_sealevel;temperature;humidity
46015;BME280;36844;51.898;-0.874;2024-03-02T00:01:19;97874.91;;;19.05;
46015;BME280;36844;51.898;-0.874;2024-03-02T00:03:44;97881.03;;;19.06;
46015;BME280;36844;51.898;-0.874;2024-03-02T00:06:10;97859.09;;;18.98;
46015;BME280;36844;51.898;-0.874;2024-03-02T00:08:35;97866.44;;;18.98;
46015;BME280;36844;51.898;-0.874;2024-03-02T00:11:01;97871.75;;;18.92;
46015;BME280;36844;51.898;-0.874;2024-03-02T00:13:28;97867.38;;;18.95;
46015;BME280;36844;51.898;-0.874;2024-03-02T00:15:56;97874.53;;;18.98;
46015;BME280;36844;51.898;-0.874;2024-03-02T00:18:27;97874.25;;;18.96;
46015;BME280;36844;51.898;-0.874;2024-03-02T00:20:56;97841.19;;;18.81;
46015;BME280;36844;51.898;-0.874;2024-03-02T00:23:27;97866.06;;;18.90;
46015;BME280;36844;51.898;-0.874;2024-03-02T00:25:55;97869.25;;;18.89;
46015;BME280;36844;51.898;-0.874;2024-03-02T00:28:32;97872.13;;;18.85;
46015;BME280;36844;51.898;-0.874;2024-03-02T00:33:36;97864.75;;;18.71;
46015;BME280;36844;51.898;-0.874;2024-03-02T00:36:03;97863.31;;;18.70;
46015;BME280;36844;51.898;-0.874;2024-03-02T00:38:30;97862.72;;;18.66;
46015;BME280;36844;51.898;-0.874;2024-03-02T00:40:58;97859.00;;;18.63;
46015;BME280;36844;51.898;-0.874;2024-03-02T00:45:49;97807.44;;;18.18;
46015;BME280;36844;51.898;-0.874;2024-03-02T00:48:15;97887.75;;;18.66;
46015;BME280;36844;51.898;-0.874;2024-03-02T00:50:41;97860.00;;;18.51;
46015;BME280;36844;51.898;-0.874;2024-03-02T00:53:10;97857.19;;;18.46;
46015;BME280;36844;51.898;-0.874;2024-03-02T00:55:36;97883.41;;;18.60;
46015;BME280;36844;51.898;-0.874;2024-03-02T00:58:02;97862.31;;;18.44;
46015;BME280;36844;51.898;-0.874;2024-03-02T01:00:27;97875.34;;;18.45;
46015;BME280;36844;51.898;-0.874;2024-03-02T01:02:53;97864.56;;;18.45;
46015;BME280;36844;51.898;-0.874;2024-03-02T01:05:18;97860.06;;;18.42;
46015;BME280;36844;51.898;-0.874;2024-03-02T01:07:43;97869.09;;;18.39;
46015;BME280;36844;51.898;-0.874;2024-03-02T01:10:09;97870.84;;;18.42;
46015;BME280;36844;51.898;-0.874;2024-03-02T01:12:35;97877.19;;;18.39;
46015;BME280;36844;51.898;-0.874;2024-03-02T01:15:00;97870.50;;;18.35;
46015;BME280;36844;51.898;-0.874;2024-03-02T01:17:25;97866.41;;;18.39;
46015;BME280;36844;51.898;-0.874;2024-03-02T01:19:51;97850.13;;;18.34;
46015;BME280;36844;51.898;-0.874;2024-03-02T01:22:16;97835.88;;;18.19;
46015;BME280;36844;51.898;-0.874;2024-03-02T01:24:43;97837.47;;;18.25;
46015;BME280;36844;51.898;-0.874;2024-03-02T01:27:08;97837.63;;;18.22;
46015;BME280;36844;51.898;-0.874;2024-03-02T01:29:33;97851.25;;;18.27;
46015;BME280;36844;51.898;-0.874;2024-03-02T01:31:58;97846.28;;;18.26;
46015;BME280;36844;51.898;-0.874;2024-03-02T01:34:24;97844.22;;;18.21;
46015;BME280;36844;51.898;-0.874;2024-03-02T01:36:50;97842.28;;;18.21;
46015;BME280;36844;51.898;-0.874;2024-03-02T01:39:15;97844.72;;;18.19;
46015;BME280;36844;51.898;-0.874;2024-03-02T01:41:40;97829.16;;;18.14;
46015;BME280;36844;51.898;-0.874;2024-03-02T01:44:06;97828.34;;;18.08;
46015;BME280;36844;51.898;-0.874;2024-03-02T01:46:32;97822.94;;;18.08;
46015;BME280;36844;51.898;-0.874;2024-03-02T01:48:57;97848.16;;;18.20;
46015;BME280;36844;51.898;-0.874;2024-03-02T01:51:22;97819.50;;;18.08;
46015;BME280;36844;51.898;-0.874;2024-03-02T01:53:48;97808.63;;;18.02;
46015;BME280;36844;51.898;-0.874;2024-03-02T01:56:13;97817.44;;;18.03;
46015;BME280;36844;51.898;-0.874;2024-03-02T01:58:38;97801.19;;;17.97;
46015;BME280;36844;51.898;-0.874;2024-03-02T02:01:04;97815.78;;;18.05;
46015;BME280;36844;51.898;-0.874;2024-03-02T02:03:29;97816.88;;;17.99;
46015;BME280;36844;51.898;-0.874;2024-03-02T02:05:54;97807.94;;;17.93;
46015;BME280;36844;51.898;-0.874;2024-03-02T02:08:20;97815.94;;;18.02;
46015;BME280;36844;51.898;-0.874;2024-03-02T02:10:45;97812.69;;;17.98;
46015;BME280;36844;51.898;-0.874;2024-03-02T02:13:10;97804.59;;;17.98;
46015;BME280;36844;51.898;-0.874;2024-03-02T02:15:36;97801.34;;;17.94;
46015;BME280;36844;51.898;-0.874;2024-03-02T02:18:02;97786.75;;;17.86;
46015;BME280;36844;51.898;-0.874;2024-03-02T02:20:28;97800.16;;;17.95;
46015;BME280;36844;51.898;-0.874;2024-03-02T02:23:01;97805.81;;;17.97;
46015;BME280;36844;51.898;-0.874;2024-03-02T02:25:27;97795.84;;;17.88;
46015;BME280;36844;51.898;-0.874;2024-03-02T02:27:53;97802.84;;;17.95;
46015;BME280;36844;51.898;-0.874;2024-03-02T02:30:24;97811.84;;;17.92;
46015;BME280;36844;51.898;-0.874;2024-03-02T02:32:49;97799.00;;;17.87;
46015;BME280;36844;51.898;-0.874;2024-03-02T02:35:14;97795.47;;;17.81;
46015;BME280;36844;51.898;-0.874;2024-03-02T02:37:40;97792.31;;;17.82;
46015;BME280;36844;51.898;-0.874;2024-03-02T02:40:06;97793.03;;;17.83;
46015;BME280;36844;51.898;-0.874;2024-03-02T02:42:32;97800.84;;;17.81;
46015;BME280;36844;51.898;-0.874;2024-03-02T02:44:57;97778.03;;;17.67;
46015;BME280;36844;51.898;-0.874;2024-03-02T02:47:22;97807.72;;;17.82;
46015;BME280;36844;51.898;-0.874;2024-03-02T02:49:48;97798.03;;;17.75;
46015;BME280;36844;51.898;-0.874;2024-03-02T02:52:13;97789.69;;;17.73;
46015;BME280;36844;51.898;-0.874;2024-03-02T02:54:38;97780.00;;;17.66;
46015;BME280;36844;51.898;-0.874;2024-03-02T02:57:04;97774.03;;;17.62;
46015;BME280;36844;51.898;-0.874;2024-03-02T02:59:29;97792.38;;;17.73;
46015;BME280;36844;51.898;-0.874;2024-03-02T03:01:54;97778.97;;;17.64;
46015;BME280;36844;51.898;-0.874;2024-03-02T03:04:20;97779.72;;;17.64;
46015;BME280;36844;51.898;-0.874;2024-03-02T03:06:45;97774.78;;;17.63;
46015;BME280;36844;51.898;-0.874;2024-03-02T03:09:11;97745.78;;;17.43;
46015;BME280;36844;51.898;-0.874;2024-03-02T03:11:36;97762.16;;;17.54;
46015;BME280;36844;51.898;-0.874;2024-03-02T03:14:02;97772.00;;;17.57;
46015;BME280;36844;51.898;-0.874;2024-03-02T03:16:28;97767.72;;;17.51;
46015;BME280;36844;51.898;-0.874;2024-03-02T03:18:53;97773.94;;;17.57;
46015;BME280;36844;51.898;-0.874;2024-03-02T03:21:18;97768.72;;;17.53;
46015;BME280;36844;51.898;-0.874;2024-03-02T03:23:44;97781.84;;;17.60;
46015;BME280;36844;51.898;-0.874;2024-03-02T03:26:09;97778.88;;;17.58;
46015;BME280;36844;51.898;-0.874;2024-03-02T03:28:34;97761.25;;;17.48;
46015;BME280;36844;51.898;-0.874;2024-03-02T03:31:00;97755.03;;;17.42;
46015;BME280;36844;51.898;-0.874;2024-03-02T03:33:25;97756.56;;;17.43;
46015;BME280;36844;51.898;-0.874;2024-03-02T03:35:50;97750.84;;;17.41;
46015;BME280;36844;51.898;-0.874;2024-03-02T03:38:16;97738.50;;;17.35;
46015;BME280;36844;51.898;-0.874;2024-03-02T03:40:41;97728.00;;;17.37;
46015;BME280;36844;51.898;-0.874;2024-03-02T03:43:06;97741.84;;;17.44;
46015;BME280;36844;51.898;-0.874;2024-03-02T03:45:32;97730.13;;;17.33;
46015;BME280;36844;51.898;-0.874;2024-03-02T03:47:57;97745.22;;;17.39;
46015;BME280;36844;51.898;-0.874;2024-03-02T03:50:22;97736.56;;;17.35;
46015;BME280;36844;51.898;-0.874;2024-03-02T03:52:48;97743.78;;;17.44;
46015;BME280;36844;51.898;-0.874;2024-03-02T03:55:13;97726.81;;;17.38;
46015;BME280;36844;51.898;-0.874;2024-03-02T03:57:38;97732.63;;;17.36;
46015;BME280;36844;51.898;-0.874;2024-03-02T04:00:04;97702.25;;;17.21;
46015;BME280;36844;51.898;-0.874;2024-03-02T04:02:30;97718.78;;;17.29;
46015;BME280;36844;51.898;-0.874;2024-03-02T04:04:55;97722.22;;;17.29;
46015;BME280;36844;51.898;-0.874;2024-03-02T04:07:20;97716.44;;;17.22;
46015;BME280;36844;51.898;-0.874;2024-03-02T04:09:46;97729.25;;;17.36;
46015;BME280;36844;51.898;-0.874;2024-03-02T04:12:11;97707.19;;;17.23;
46015;BME280;36844;51.898;-0.874;2024-03-02T04:14:38;97728.19;;;17.33;
46015;BME280;36844;51.898;-0.874;2024-03-02T04:17:03;97705.50;;;17.25;
46015;BME280;36844;51.898;-0.874;2024-03-02T04:19:28;97710.44;;;17.27;
46015;BME280;36844;51.898;-0.874;2024-03-02T04:21:54;97699.72;;;17.18;
46015;BME280;36844;51.898;-0.874;2024-03-02T04:24:19;97697.03;;;17.18;
46015;BME280;36844;51.898;-0.874;2024-03-02T04:26:44;97715.41;;;17.28;
46015;BME280;36844;51.898;-0.874;2024-03-02T04:29:10;97703.16;;;17.18;
46015;BME280;36844;51.898;-0.874;2024-03-02T04:31:35;97696.94;;;17.12;
46015;BME280;36844;51.898;-0.874;2024-03-02T04:34:00;97703.16;;;17.18;
46015;BME280;36844;51.898;-0.874;2024-03-02T04:36:26;97712.72;;;17.19;
46015;BME280;36844;51.898;-0.874;2024-03-02T04:38:51;97702.91;;;17.16;
46015;BME280;36844;51.898;-0.874;2024-03-02T04:41:16;97707.25;;;17.14;
46015;BME280;36844;51.898;-0.874;2024-03-02T04:43:42;97699.81;;;17.09;
46015;BME280;36844;51.898;-0.874;2024-03-02T04:46:07;97722.31;;;17.20;
46015;BME280;36844;51.898;-0.874;2024-03-02T04:48:33;97700.69;;;17.06;
46015;BME280;36844;51.898;-0.874;2024-03-02T04:50:58;97718.53;;;17.18;
46015;BME280;36844;51.898;-0.874;2024-03-02T04:53:24;97701.44;;;17.06;
46015;BME280;36844;51.898;-0.874;2024-03-02T04:55:49;97712.31;;;17.12;
46015;BME280;36844;51.898;-0.874;2024-03-02T04:58:43;97705.91;;;17.09;
46015;BME280;36844;51.898;-0.874;2024-03-02T05:01:08;97693.69;;;16.99;
46015;BME280;36844;51.898;-0.874;2024-03-02T05:03:34;97699.50;;;17.07;
46015;BME280;36844;51.898;-0.874;2024-03-02T05:06:00;97712.75;;;17.10;
46015;BME280;36844;51.898;-0.874;2024-03-02T05:08:25;97695.63;;;17.08;
46015;BME280;36844;51.898;-0.874;2024-03-02T05:10:50;97685.63;;;16.99;
46015;BME280;36844;51.898;-0.874;2024-03-02T05:13:16;97692.34;;;17.04;
46015;BME280;36844;51.898;-0.874;2024-03-02T05:15:42;97694.59;;;17.05;
46015;BME280;36844;51.898;-0.874;2024-03-02T05:18:08;97688.72;;;17.07;
46015;BME280;36844;51.898;-0.874;2024-03-02T05:20:34;97664.31;;;16.96;
46015;BME280;36844;51.898;-0.874;2024-03-02T05:22:59;97660.59;;;16.93;
46015;BME280;36844;51.898;-0.874;2024-03-02T05:25:24;97647.94;;;16.85;
46015;BME280;36844;51.898;-0.874;2024-03-02T05:27:50;97640.06;;;16.81;
46015;BME280;36844;51.898;-0.874;2024-03-02T05:30:15;97647.78;;;16.88;
46015;BME280;36844;51.898;-0.874;2024-03-02T05:32:41;97648.34;;;16.92;
46015;BME280;36844;51.898;-0.874;2024-03-02T05:35:06;97633.63;;;16.78;
46015;BME280;36844;51.898;-0.874;2024-03-02T05:37:33;97658.94;;;16.96;
46015;BME280;36844;51.898;-0.874;2024-03-02T05:39:58;97645.09;;;16.88;
46015;BME280;36844;51.898;-0.874;2024-03-02T05:42:24;97640.75;;;16.91;
46015;BME280;36844;51.898;-0.874;2024-03-02T05:44:49;97642.41;;;16.88;
46015;BME280;36844;51.898;-0.874;2024-03-02T05:47:15;97626.34;;;16.79;
46015;BME280;36844;51.898;-0.874;2024-03-02T05:49:41;97629.88;;;16.85;
46015;BME280;36844;51.898;-0.874;2024-03-02T05:52:06;97643.25;;;16.94;
46015;BME280;36844;51.898;-0.874;2024-03-02T05:54:32;97645.66;;;16.92;
46015;BME280;36844;51.898;-0.874;2024-03-02T05:56:57;97636.84;;;16.92;
46015;BME280;36844;51.898;-0.874;2024-03-02T05:59:41;97629.44;;;16.87;
46015;BME280;36844;51.898;-0.874;2024-03-02T06:02:06;97623.66;;;16.79;
46015;BME280;36844;51.898;-0.874;2024-03-02T06:04:31;97612.91;;;16.79;
46015;BME280;36844;51.898;-0.874;2024-03-02T06:06:56;97612.91;;;16.79;
46015;BME280;36844;51.898;-0.874;2024-03-02T06:09:22;97622.56;;;16.86;
46015;BME280;36844;51.898;-0.874;2024-03-02T06:11:49;97605.28;;;16.77;
46015;BME280;36844;51.898;-0.874;2024-03-02T06:14:15;97604.72;;;16.73;
46015;BME280;36844;51.898;-0.874;2024-03-02T06:16:40;97614.84;;;16.78;
46015;BME280;36844;51.898;-0.874;2024-03-02T06:19:05;97599.34;;;16.73;
46015;BME280;36844;51.898;-0.874;2024-03-02T06:21:30;97592.94;;;16.71;
46015;BME280;36844;51.898;-0.874;2024-03-02T06:23:56;97594.16;;;16.70;
46015;BME280;36844;51.898;-0.874;2024-03-02T06:26:21;97577.63;;;16.62;
46015;BME280;36844;51.898;-0.874;2024-03-02T06:28:47;97590.69;;;16.69;
46015;BME280;36844;51.898;-0.874;2024-03-02T06:31:12;97597.84;;;16.72;
46015;BME280;36844;51.898;-0.874;2024-03-02T06:33:37;97568.41;;;16.54;
46015;BME280;36844;51.898;-0.874;2024-03-02T06:36:03;97597.25;;;16.68;
46015;BME280;36844;51.898;-0.874;2024-03-02T06:38:29;97590.69;;;16.69;
46015;BME280;36844;51.898;-0.874;2024-03-02T06:40:54;97575.69;;;16.63;
46015;BME280;36844;51.898;-0.874;2024-03-02T06:43:22;97598.31;;;16.71;
46015;BME280;36844;51.898;-0.874;2024-03-02T06:45:51;97596.06;;;16.69;
46015;BME280;36844;51.898;-0.874;2024-03-02T06:48:17;97576.75;;;16.56;
46015;BME280;36844;51.898;-0.874;2024-03-02T06:50:46;97611.00;;;16.70;
46015;BME280;36844;51.898;-0.874;2024-03-02T06:53:11;97602.22;;;16.61;
46015;BME280;36844;51.898;-0.874;2024-03-02T06:55:37;97599.84;;;16.63;
46015;BME280;36844;51.898;-0.874;2024-03-02T06:58:02;97575.75;;;16.45;
46015;BME280;36844;51.898;-0.874;2024-03-02T07:00:27;97611.44;;;16.69;
46015;BME280;36844;51.898;-0.874;2024-03-02T07:02:53;97590.63;;;16.55;
46015;BME280;36844;51.898;-0.874;2024-03-02T07:05:18;97592.56;;;16.54;
46015;BME280;36844;51.898;-0.874;2024-03-02T07:07:43;97610.28;;;16.61;
46015;BME280;36844;51.898;-0.874;2024-03-02T07:10:09;97593.94;;;16.50;
46015;BME280;36844;51.898;-0.874;2024-03-02T07:12:34;97627.72;;;16.65;
46015;BME280;36844;51.898;-0.874;2024-03-02T07:14:59;97604.47;;;16.62;
46015;BME280;36844;51.898;-0.874;2024-03-02T07:17:28;97623.66;;;16.79;
46015;BME280;36844;51.898;-0.874;2024-03-02T07:19:53;97629.03;;;16.79;
46015;BME280;36844;51.898;-0.874;2024-03-02T07:22:19;97608.47;;;16.67;
46015;BME280;36844;51.898;-0.874;2024-03-02T07:24:44;97630.06;;;16.82;
46015;BME280;36844;51.898;-0.874;2024-03-02T07:27:11;97627.19;;;16.85;
46015;BME280;36844;51.898;-0.874;2024-03-02T07:29:37;97638.53;;;16.89;
46015;BME280;36844;51.898;-0.874;2024-03-02T07:32:03;97644.75;;;16.95;
46015;BME280;36844;51.898;-0.874;2024-03-02T07:34:29;97627.31;;;16.91;
46015;BME280;36844;51.898;-0.874;2024-03-02T07:36:55;97618.69;;;16.87;
46015;BME280;36844;51.898;-0.874;2024-03-02T07:39:20;97609.25;;;16.91;
46015;BME280;36844;51.898;-0.874;2024-03-02T07:41:46;97632.59;;;17.09;
46015;BME280;36844;51.898;-0.874;2024-03-02T07:44:12;97642.25;;;17.15;
46015;BME280;36844;51.898;-0.874;2024-03-02T07:46:43;97632.09;;;17.10;
46015;BME280;36844;51.898;-0.874;2024-03-02T07:49:09;97634.00;;;17.19;
46015;BME280;36844;51.898;-0.874;2024-03-02T07:51:34;97638.78;;;17.24;
46015;BME280;36844;51.898;-0.874;2024-03-02T07:53:59;97631.72;;;17.26;
46015;BME280;36844;51.898;-0.874;2024-03-02T07:56:25;97604.03;;;17.11;
46015;BME280;36844;51.898;-0.874;2024-03-02T07:58:50;97612.41;;;17.13;
46015;BME280;36844;51.898;-0.874;2024-03-02T08:01:16;97638.50;;;17.36;
46015;BME280;36844;51.898;-0.874;2024-03-02T08:03:42;97640.56;;;17.41;
46015;BME280;36844;51.898;-0.874;2024-03-02T08:06:08;97632.97;;;17.40;
46015;BME280;36844;51.898;-0.874;2024-03-02T08:08:33;97645.91;;;17.50;
46015;BME280;36844;51.898;-0.874;2024-03-02T08:10:58;97638.09;;;17.52;
46015;BME280;36844;51.898;-0.874;2024-03-02T08:13:24;97635.41;;;17.52;
46015;BME280;36844;51.898;-0.874;2024-03-02T08:15:49;97644.91;;;17.62;
46015;BME280;36844;51.898;-0.874;2024-03-02T08:18:14;97661.44;;;17.70;
46015;BME280;36844;51.898;-0.874;2024-03-02T08:20:40;97644.63;;;17.60;
46015;BME280;36844;51.898;-0.874;2024-03-02T08:23:06;97665.16;;;17.72;
46015;BME280;36844;51.898;-0.874;2024-03-02T08:25:31;97667.09;;;17.72;
46015;BME280;36844;51.898;-0.874;2024-03-02T08:27:57;97663.94;;;17.73;
46015;BME280;36844;51.898;-0.874;2024-03-02T08:30:23;97671.19;;;17.82;
46015;BME280;36844;51.898;-0.874;2024-03-02T08:32:48;97655.84;;;17.73;
46015;BME280;36844;51.898;-0.874;2024-03-02T08:35:13;97690.25;;;17.93;
46015;BME280;36844;51.898;-0.874;2024-03-02T08:37:39;97672.41;;;17.81;
46015;BME280;36844;51.898;-0.874;2024-03-02T08:40:07;97694.69;;;17.96;
46015;BME280;36844;51.898;-0.874;2024-03-02T08:42:33;97689.78;;;17.95;
46015;BME280;36844;51.898;-0.874;2024-03-02T08:44:58;97686.53;;;17.91;
46015;BME280;36844;51.898;-0.874;2024-03-02T08:47:26;97681.88;;;17.91;
46015;BME280;36844;51.898;-0.874;2024-03-02T08:49:51;97715.50;;;18.10;
46015;BME280;36844;51.898;-0.874;2024-03-02T08:52:17;97692.09;;;18.02;
46015;BME280;36844;51.898;-0.874;2024-03-02T08:54:42;97670.75;;;17.84;
46015;BME280;36844;51.898;-0.874;2024-03-02T08:57:07;97702.03;;;18.10;
46015;BME280;36844;51.898;-0.874;2024-03-02T08:59:33;97717.09;;;18.17;
46015;BME280;36844;51.898;-0.874;2024-03-02T09:01:58;97703.09;;;18.13;
46015;BME280;36844;51.898;-0.874;2024-03-02T09:04:24;97717.56;;;18.15;
46015;BME280;36844;51.898;-0.874;2024-03-02T09:06:49;97690.72;;;18.06;
46015;BME280;36844;51.898;-0.874;2024-03-02T09:09:14;97720.31;;;18.21;
46015;BME280;36844;51.898;-0.874;2024-03-02T09:11:40;97707.22;;;18.14;
46015;BME280;36844;51.898;-0.874;2024-03-02T09:14:05;97722.84;;;18.24;
46015;BME280;36844;51.898;-0.874;2024-03-02T09:16:31;97733.47;;;18.28;
46015;BME280;36844;51.898;-0.874;2024-03-02T09:18:56;97725.38;;;18.28;
46015;BME280;36844;51.898;-0.874;2024-03-02T09:21:22;97732.72;;;18.27;
46015;BME280;36844;51.898;-0.874;2024-03-02T09:23:48;97744.50;;;18.30;
46015;BME280;36844;51.898;-0.874;2024-03-02T09:26:13;97730.78;;;18.28;
46015;BME280;36844;51.898;-0.874;2024-03-02T09:28:42;97745.06;;;18.34;
46015;BME280;36844;51.898;-0.874;2024-03-02T09:31:08;97740.13;;;18.32;
46015;BME280;36844;51.898;-0.874;2024-03-02T09:33:33;97729.66;;;18.20;
46015;BME280;36844;51.898;-0.874;2024-03-02T09:35:58;97754.91;;;18.37;
46015;BME280;36844;51.898;-0.874;2024-03-02T09:38:24;97757.22;;;18.44;
46015;BME280;36844;51.898;-0.874;2024-03-02T09:40:49;97753.72;;;18.38;
46015;BME280;36844;51.898;-0.874;2024-03-02T09:43:14;97760.19;;;18.46;
46015;BME280;36844;51.898;-0.874;2024-03-02T09:45:40;97765.41;;;18.49;
46015;BME280;36844;51.898;-0.874;2024-03-02T09:48:06;97763.09;;;18.42;
46015;BME280;36844;51.898;-0.874;2024-03-02T09:50:32;97770.59;;;18.53;
46015;BME280;36844;51.898;-0.874;2024-03-02T09:52:58;97741.00;;;18.38;
46015;BME280;36844;51.898;-0.874;2024-03-02T09:55:24;97766.44;;;18.52;
46015;BME280;36844;51.898;-0.874;2024-03-02T09:57:50;97759.00;;;18.47;
46015;BME280;36844;51.898;-0.874;2024-03-02T10:00:16;97758.25;;;18.46;
46015;BME280;36844;51.898;-0.874;2024-03-02T10:02:42;97777.31;;;18.57;
46015;BME280;36844;51.898;-0.874;2024-03-02T10:05:23;97761.88;;;18.43;
46015;BME280;36844;51.898;-0.874;2024-03-02T10:08:01;97765.59;;;18.46;
46015;BME280;36844;51.898;-0.874;2024-03-02T10:10:40;97783.16;;;18.56;
46015;BME280;36844;51.898;-0.874;2024-03-02T10:13:13;97792.47;;;18.55;
46015;BME280;36844;51.898;-0.874;2024-03-02T10:15:40;97789.22;;;18.51;
46015;BME280;36844;51.898;-0.874;2024-03-02T10:18:12;97781.94;;;18.42;
46015;BME280;36844;51.898;-0.874;2024-03-02T10:20:39;97795.50;;;18.48;
46015;BME280;36844;51.898;-0.874;2024-03-02T10:23:16;97799.53;;;18.52;
46015;BME280;36844;51.898;-0.874;2024-03-02T10:25:43;97801.19;;;18.50;
46015;BME280;36844;51.898;-0.874;2024-03-02T10:28:08;97801.56;;;18.43;
46015;BME280;36844;51.898;-0.874;2024-03-02T10:30:34;97816.59;;;18.49;
46015;BME280;36844;51.898;-0.874;2024-03-02T10:33:03;97805.72;;;18.44;
46015;BME280;36844;51.898;-0.874;2024-03-02T10:35:30;97806.75;;;18.46;
46015;BME280;36844;51.898;-0.874;2024-03-02T10:38:04;97797.00;;;18.34;
46015;BME280;36844;51.898;-0.874;2024-03-02T10:40:29;97799.00;;;18.25;
46015;BME280;36844;51.898;-0.874;2024-03-02T10:42:55;97814.16;;;18.37;
46015;BME280;36844;51.898;-0.874;2024-03-02T10:45:21;97821.25;;;18.34;
46015;BME280;36844;51.898;-0.874;2024-03-02T10:47:50;97813.59;;;18.33;
46015;BME280;36844;51.898;-0.874;2024-03-02T10:50:15;97814.97;;;18.28;
46015;BME280;36844;51.898;-0.874;2024-03-02T10:52:41;97811.59;;;18.28;
46015;BME280;36844;51.898;-0.874;2024-03-02T10:55:08;97813.53;;;18.27;
46015;BME280;36844;51.898;-0.874;2024-03-02T10:57:54;97800.44;;;18.20;
46015;BME280;36844;51.898;-0.874;2024-03-02T11:00:24;97820.28;;;18.23;
46015;BME280;36844;51.898;-0.874;2024-03-02T11:03:03;97820.72;;;18.21;
46015;BME280;36844;51.898;-0.874;2024-03-02T11:05:36;97827.44;;;18.26;
46015;BME280;36844;51.898;-0.874;2024-03-02T11:08:07;97828.38;;;18.23;
46015;BME280;36844;51.898;-0.874;2024-03-02T11:10:35;97839.41;;;18.25;
46015;BME280;36844;51.898;-0.874;2024-03-02T11:13:05;97813.84;;;18.06;
46015;BME280;36844;51.898;-0.874;2024-03-02T11:15:34;97832.03;;;18.11;
46015;BME280;36844;51.898;-0.874;2024-03-02T11:18:01;97834.56;;;18.14;
46015;BME280;36844;51.898;-0.874;2024-03-02T11:20:29;97823.97;;;18.11;
46015;BME280;36844;51.898;-0.874;2024-03-02T11:22:54;97833.91;;;18.05;
46015;BME280;36844;51.898;-0.874;2024-03-02T11:25:27;97857.31;;;18.13;
46015;BME280;36844;51.898;-0.874;2024-03-02T11:33:10;97842.88;;;18.02;
46015;BME280;36844;51.898;-0.874;2024-03-02T11:35:36;97850.50;;;18.03;
46015;BME280;36844;51.898;-0.874;2024-03-02T11:38:02;97860.81;;;18.05;
46015;BME280;36844;51.898;-0.874;2024-03-02T11:40:28;97833.75;;;17.99;
46015;BME280;36844;51.898;-0.874;2024-03-02T11:42:54;97826.50;;;17.91;
46015;BME280;36844;51.898;-0.874;2024-03-02T11:45:24;97854.56;;;17.99;
46015;BME280;36844;51.898;-0.874;2024-03-02T11:47:50;97860.44;;;17.97;
46015;BME280;36844;51.898;-0.874;2024-03-02T11:50:49;97850.44;;;17.89;
46015;BME280;36844;51.898;-0.874;2024-03-02T11:53:14;97859.84;;;17.93;
46015;BME280;36844;51.898;-0.874;2024-03-02T11:55:40;97855.41;;;17.81;
46015;BME280;36844;51.898;-0.874;2024-03-02T11:58:15;97860.44;;;17.88;
46015;BME280;36844;51.898;-0.874;2024-03-02T12:00:46;97861.84;;;17.84;
46015;BME280;36844;51.898;-0.874;2024-03-02T12:03:13;97855.13;;;17.79;
46015;BME280;36844;51.898;-0.874;2024-03-02T12:05:39;97865.72;;;17.83;
46015;BME280;36844;51.898;-0.874;2024-03-02T12:08:06;97861.13;;;17.74;
46015;BME280;36844;51.898;-0.874;2024-03-02T12:10:32;97870.53;;;17.78;
46015;BME280;36844;51.898;-0.874;2024-03-02T12:13:05;97871.44;;;17.75;
46015;BME280;36844;51.898;-0.874;2024-03-02T12:15:37;97865.66;;;17.68;
46015;BME280;36844;51.898;-0.874;2024-03-02T12:18:03;97872.97;;;17.67;
46015;BME280;36844;51.898;-0.874;2024-03-02T12:20:30;97877.47;;;17.70;
46015;BME280;36844;51.898;-0.874;2024-03-02T12:22:58;97871.31;;;17.70;
46015;BME280;36844;51.898;-0.874;2024-03-02T12:25:24;97882.09;;;17.70;
46015;BME280;36844;51.898;-0.874;2024-03-02T12:27:52;97875.97;;;17.69;
46015;BME280;36844;51.898;-0.874;2024-03-02T12:30:19;97881.38;;;17.69;
46015;BME280;36844;51.898;-0.874;2024-03-02T12:32:45;97883.75;;;17.67;
46015;BME280;36844;51.898;-0.874;2024-03-02T12:35:11;97874.19;;;17.66;
46015;BME280;36844;51.898;-0.874;2024-03-02T12:37:50;97883.31;;;17.69;
46015;BME280;36844;51.898;-0.874;2024-03-02T12:40:18;97877.16;;;17.68;
46015;BME280;36844;51.898;-0.874;2024-03-02T12:42:45;97872.97;;;17.67;
46015;BME280;36844;51.898;-0.874;2024-03-02T12:45:11;97861.63;;;17.63;
46015;BME280;36844;51.898;-0.874;2024-03-02T12:47:37;97876.53;;;17.73;
46015;BME280;36844;51.898;-0.874;2024-03-02T12:50:04;97885.50;;;17.80;
46015;BME280;36844;51.898;-0.874;2024-03-02T12:52:30;97866.69;;;17.70;
46015;BME280;36844;51.898;-0.874;2024-03-02T12:54:58;97876.81;;;17.75;
46015;BME280;36844;51.898;-0.874;2024-03-02T12:57:27;97870.25;;;17.77;
46015;BME280;36844;51.898;-0.874;2024-03-02T13:00:01;97870.84;;;17.81;
46015;BME280;36844;51.898;-0.874;2024-03-02T13:02:30;97869.63;;;17.82;
46015;BME280;36844;51.898;-0.874;2024-03-02T13:04:57;97885.72;;;17.91;
46015;BME280;36844;51.898;-0.874;2024-03-02T13:07:24;97882.28;;;17.90;
46015;BME280;36844;51.898;-0.874;2024-03-02T13:09:50;97894.97;;;17.99;
46015;BME280;36844;51.898;-0.874;2024-03-02T13:12:16;97894.66;;;17.97;
46015;BME280;36844;51.898;-0.874;2024-03-02T13:14:42;97903.59;;;18.03;
46015;BME280;36844;51.898;-0.874;2024-03-02T13:17:08;97900.47;;;18.04;
46015;BME280;36844;51.898;-0.874;2024-03-02T13:19:34;97907.19;;;18.09;
46015;BME280;36844;51.898;-0.874;2024-03-02T13:21:59;97889.41;;;18.02;
46015;BME280;36844;51.898;-0.874;2024-03-02T13:24:27;97885.63;;;18.09;
46015;BME280;36844;51.898;-0.874;2024-03-02T13:26:54;97900.50;;;18.19;
46015;BME280;36844;51.898;-0.874;2024-03-02T13:29:22;97911.53;;;18.21;
46015;BME280;36844;51.898;-0.874;2024-03-02T13:31:48;97902.91;;;18.17;
46015;BME280;36844;51.898;-0.874;2024-03-02T13:34:13;97894.13;;;18.16;
46015;BME280;36844;51.898;-0.874;2024-03-02T13:36:39;97908.25;;;18.26;
46015;BME280;36844;51.898;-0.874;2024-03-02T13:39:04;97916.31;;;18.26;
46015;BME280;36844;51.898;-0.874;2024-03-02T13:41:36;97891.25;;;18.20;
46015;BME280;36844;51.898;-0.874;2024-03-02T13:44:02;97902.84;;;18.26;
46015;BME280;36844;51.898;-0.874;2024-03-02T13:46:28;97905.53;;;18.26;
46015;BME280;36844;51.898;-0.874;2024-03-02T13:48:54;97885.53;;;18.18;
46015;BME280;36844;51.898;-0.874;2024-03-02T13:51:20;97905.53;;;18.26;